JP-0007 weather

Oitakenou Airport
Bungo-ono, Ōita Prefecture, Japan

Public forecast

Using degrees Celsius for public forecast. Weather courtesy of forecast.io.

Closest aviation weather report (METAR) to Oitakenou Airport

Closest report is Oita Airport, 29.6 nm (54.8 km) NNE. Retrieved 2019/10/21 06:00 UTC (34 minutes ago):

RJFO 210600Z 01015KT 9999 FEW030 BKN045 22/15 Q1012

Closest aviation forecast (TAF) to Oitakenou Airport

Closest forecast is Oita Airport, 29.6 nm (54.8 km) NNE. Retrieved 2019/10/21 06:30 UTC (4 minutes ago):

TAF RJFO 210506Z 2106/2212 02010KT 9999 FEW020 BECMG 2109/2111 31005KT